createdAt,value
2017-10-21T00:00:45.653Z,0
2017-10-21T00:01:45.631Z,0
2017-10-21T00:02:45.606Z,0
2017-10-21T00:03:45.573Z,0
2017-10-21T00:04:45.557Z,0
2017-10-21T00:05:45.212Z,0
2017-10-21T00:06:45.511Z,0
2017-10-21T00:07:45.496Z,0
2017-10-21T00:08:45.153Z,0
2017-10-21T00:09:45.469Z,0
2017-10-21T00:10:45.419Z,0
2017-10-21T00:11:45.405Z,0
2017-10-21T00:12:45.366Z,0
2017-10-21T00:13:45.027Z,0
2017-10-21T00:14:45.326Z,0
2017-10-21T00:15:45.309Z,0
2017-10-21T00:16:45.279Z,0
2017-10-21T00:17:45.262Z,0
2017-10-21T00:18:45.241Z,0
2017-10-21T00:19:45.225Z,0
2017-10-21T00:20:45.206Z,0
2017-10-21T00:21:45.167Z,0
2017-10-21T00:22:45.137Z,0
2017-10-21T00:23:45.134Z,0
2017-10-21T00:24:45.110Z,0
2017-10-21T00:25:45.081Z,0
2017-10-21T00:26:45.069Z,0
2017-10-21T00:27:45.032Z,0
2017-10-21T00:28:45.028Z,0
2017-10-21T00:29:44.999Z,0
2017-10-21T00:30:44.958Z,0
2017-10-21T00:31:44.955Z,0
2017-10-21T00:32:44.917Z,0
2017-10-21T00:33:44.890Z,0
2017-10-21T00:34:44.892Z,0
2017-10-21T00:35:44.852Z,0
2017-10-21T00:36:44.832Z,0
2017-10-21T00:37:44.801Z,0
2017-10-21T00:38:44.812Z,0
2017-10-21T00:39:44.758Z,0
2017-10-21T00:40:44.728Z,0
2017-10-21T00:41:44.711Z,0
2017-10-21T00:42:44.700Z,0
2017-10-21T00:43:44.676Z,0
2017-10-21T00:44:44.655Z,0
2017-10-21T00:45:44.626Z,0
2017-10-21T00:46:44.600Z,0
2017-10-21T00:47:44.578Z,0
2017-10-21T00:48:44.574Z,0
2017-10-21T00:49:44.217Z,0
2017-10-21T00:50:44.513Z,0
2017-10-21T00:51:44.177Z,0
2017-10-21T00:52:44.465Z,0
2017-10-21T00:53:44.448Z,0
2017-10-21T00:54:44.421Z,0
2017-10-21T00:55:44.393Z,0
2017-10-21T00:56:44.385Z,0
2017-10-21T00:57:44.354Z,0
2017-10-21T00:58:44.336Z,0
2017-10-21T00:59:44.302Z,0
2017-10-21T01:00:44.274Z,0
2017-10-21T01:01:44.259Z,0
2017-10-21T01:02:44.251Z,0
2017-10-21T01:03:44.226Z,0
2017-10-21T01:04:44.194Z,0
2017-10-21T01:05:44.174Z,0
2017-10-21T01:06:44.147Z,0
2017-10-21T01:07:43.811Z,0
2017-10-21T01:08:44.104Z,0
2017-10-21T01:09:44.083Z,0
2017-10-21T01:10:44.061Z,0
2017-10-21T01:11:44.043Z,0
2017-10-21T01:12:44.021Z,0
2017-10-21T01:13:44.014Z,0
2017-10-21T01:14:43.962Z,0
2017-10-21T01:15:43.622Z,0
2017-10-21T01:16:43.915Z,0
2017-10-21T01:17:43.903Z,0
2017-10-21T01:18:43.873Z,0
2017-10-21T01:19:43.525Z,0
2017-10-21T01:20:43.825Z,0
2017-10-21T01:21:43.808Z,0
2017-10-21T01:22:43.780Z,0
2017-10-21T01:23:43.761Z,0
2017-10-21T01:24:43.734Z,0
2017-10-21T01:25:43.706Z,0
2017-10-21T01:26:43.691Z,0
2017-10-21T01:27:43.663Z,0
2017-10-21T01:28:43.642Z,0
2017-10-21T01:29:43.616Z,0
2017-10-21T01:30:43.612Z,0
2017-10-21T01:31:43.609Z,0
2017-10-21T01:32:43.562Z,0
2017-10-21T01:33:43.641Z,0
2017-10-21T01:34:43.508Z,0
2017-10-21T01:35:43.491Z,0
2017-10-21T01:36:43.145Z,0
2017-10-21T01:37:43.447Z,0
2017-10-21T01:38:43.424Z,0
2017-10-21T01:39:43.404Z,0
2017-10-21T01:40:43.377Z,0
2017-10-21T01:41:43.362Z,0
2017-10-21T01:42:43.331Z,0
2017-10-21T01:43:43.306Z,0
2017-10-21T01:44:43.280Z,0
2017-10-21T01:45:43.265Z,0
2017-10-21T01:46:43.232Z,0
2017-10-21T01:47:43.221Z,0
2017-10-21T01:48:43.200Z,0
2017-10-21T01:49:42.869Z,0
2017-10-21T01:50:43.142Z,0
2017-10-21T01:51:43.121Z,0
2017-10-21T01:52:42.782Z,0
2017-10-21T01:53:43.087Z,0
2017-10-21T01:54:43.064Z,0
2017-10-21T01:55:43.023Z,0
2017-10-21T01:56:43.004Z,0
2017-10-21T01:57:42.993Z,0
2017-10-21T01:58:42.952Z,0
2017-10-21T01:59:42.947Z,0
2017-10-21T02:00:42.919Z,0
2017-10-21T02:01:42.890Z,0
2017-10-21T02:02:42.882Z,0
2017-10-21T02:03:42.849Z,0
2017-10-21T02:04:42.822Z,0
2017-10-21T02:05:42.796Z,0
2017-10-21T02:06:42.788Z,0
2017-10-21T02:07:42.772Z,0
2017-10-21T02:08:42.737Z,0
2017-10-21T02:09:42.710Z,0
2017-10-21T02:10:42.680Z,0
2017-10-21T02:11:42.670Z,0
2017-10-21T02:12:42.638Z,0
2017-10-21T02:13:42.617Z,0
2017-10-21T02:14:42.594Z,0
2017-10-21T02:15:42.633Z,0
2017-10-21T02:16:42.548Z,0
2017-10-21T02:17:42.523Z,0
2017-10-21T02:18:42.506Z,0
2017-10-21T02:19:42.168Z,0
2017-10-21T02:20:42.473Z,0
2017-10-21T02:21:42.112Z,0
2017-10-21T02:22:42.416Z,0
2017-10-21T02:23:42.383Z,0
2017-10-21T02:24:42.375Z,0
2017-10-21T02:25:42.344Z,0
2017-10-21T02:26:42.325Z,0
2017-10-21T02:27:41.976Z,0
2017-10-21T02:28:42.307Z,0
2017-10-21T02:29:42.250Z,0
2017-10-21T02:30:42.237Z,0
2017-10-21T02:31:42.211Z,0
2017-10-21T02:32:42.194Z,0
2017-10-21T02:33:42.163Z,0
2017-10-21T02:34:42.144Z,0
2017-10-21T02:35:42.114Z,0
2017-10-21T02:36:42.087Z,0
2017-10-21T02:37:42.070Z,0
2017-10-21T02:38:42.037Z,0
2017-10-21T02:39:41.705Z,0
2017-10-21T02:40:41.999Z,0
2017-10-21T02:41:41.981Z,0
2017-10-21T02:42:41.963Z,0
2017-10-21T02:43:41.610Z,0
2017-10-21T02:44:41.591Z,0
2017-10-21T02:45:41.891Z,0
2017-10-21T02:46:41.887Z,0
2017-10-21T02:47:41.838Z,0
2017-10-21T02:48:41.816Z,0
2017-10-21T02:49:41.793Z,0
2017-10-21T02:50:41.792Z,0
2017-10-21T02:51:41.755Z,0
2017-10-21T02:52:41.732Z,0
2017-10-21T02:53:41.697Z,0
2017-10-21T02:54:41.686Z,0
2017-10-21T02:55:41.659Z,0
2017-10-21T02:56:41.634Z,0
2017-10-21T02:57:41.615Z,0
2017-10-21T02:58:41.587Z,0
2017-10-21T02:59:41.570Z,0
2017-10-21T03:00:41.225Z,0
2017-10-21T03:01:41.534Z,0
2017-10-21T03:02:41.496Z,0
2017-10-21T03:03:41.465Z,0
2017-10-21T03:04:41.458Z,0
2017-10-21T03:05:41.428Z,0
2017-10-21T03:06:41.401Z,0
2017-10-21T03:07:41.393Z,0
2017-10-21T03:08:41.366Z,0
2017-10-21T03:09:41.339Z,0
2017-10-21T03:10:40.982Z,0
2017-10-21T03:11:41.291Z,0
2017-10-21T03:12:41.295Z,0
2017-10-21T03:13:41.248Z,0
2017-10-21T03:14:41.235Z,0
2017-10-21T03:15:41.208Z,0
2017-10-21T03:16:41.192Z,0
2017-10-21T03:17:41.161Z,0
2017-10-21T03:18:41.128Z,0
2017-10-21T03:19:41.109Z,0
2017-10-21T03:20:41.091Z,0
2017-10-21T03:21:41.065Z,0
2017-10-21T03:22:41.041Z,0
2017-10-21T03:23:41.017Z,0
2017-10-21T03:24:41.009Z,0
2017-10-21T03:25:40.972Z,0
2017-10-21T03:26:40.946Z,0
2017-10-21T03:27:40.935Z,0
2017-10-21T03:28:40.900Z,0
2017-10-21T03:29:40.883Z,0
2017-10-21T03:30:40.863Z,0
2017-10-21T03:31:40.838Z,0
2017-10-21T03:32:40.823Z,0
2017-10-21T03:33:40.788Z,0
2017-10-21T03:34:40.767Z,0
2017-10-21T03:35:40.752Z,0
2017-10-21T03:36:40.724Z,0
2017-10-21T03:37:40.373Z,0
2017-10-21T03:38:40.677Z,0
2017-10-21T03:39:40.657Z,0
2017-10-21T03:40:40.640Z,0
2017-10-21T03:41:40.628Z,0
2017-10-21T03:42:40.581Z,0
2017-10-21T03:43:40.554Z,0
2017-10-21T03:44:40.538Z,0
2017-10-21T03:45:40.529Z,0
2017-10-21T03:46:40.492Z,0
2017-10-21T03:47:40.476Z,0
2017-10-21T03:48:40.441Z,0
2017-10-21T03:49:40.422Z,0
2017-10-21T03:50:40.415Z,0
2017-10-21T03:51:40.372Z,0
2017-10-21T03:52:40.365Z,0
2017-10-21T03:53:40.341Z,0
2017-10-21T03:54:40.318Z,0
2017-10-21T03:55:40.288Z,0
2017-10-21T03:56:40.608Z,0
2017-10-21T03:57:39.918Z,0
2017-10-21T03:58:40.214Z,0
2017-10-21T03:59:40.194Z,0
2017-10-21T04:00:40.217Z,0
2017-10-21T04:01:40.141Z,0
2017-10-21T04:02:40.130Z,0
2017-10-21T04:03:40.108Z,0
2017-10-21T04:04:40.082Z,0
2017-10-21T04:05:40.065Z,0
2017-10-21T04:06:40.041Z,0
2017-10-21T04:07:40.020Z,0
2017-10-21T04:08:39.994Z,0
2017-10-21T04:09:39.974Z,0
2017-10-21T04:10:39.953Z,0
2017-10-21T04:11:39.931Z,0
2017-10-21T04:12:39.892Z,0
2017-10-21T04:13:39.551Z,0
2017-10-21T04:14:39.860Z,0
2017-10-21T04:15:39.830Z,0
2017-10-21T04:16:39.809Z,0
2017-10-21T04:17:39.822Z,0
2017-10-21T04:18:39.760Z,0
2017-10-21T04:19:39.742Z,0
2017-10-21T04:20:39.394Z,0
2017-10-21T04:21:39.695Z,0
2017-10-21T04:22:39.670Z,0
2017-10-21T04:23:39.661Z,0
2017-10-21T04:24:39.628Z,0
2017-10-21T04:25:39.605Z,0
2017-10-21T04:26:39.571Z,0
2017-10-21T04:27:39.557Z,0
2017-10-21T04:28:39.539Z,0
2017-10-21T04:29:39.530Z,0
2017-10-21T04:30:39.499Z,0
2017-10-21T04:31:39.467Z,0
2017-10-21T04:32:39.442Z,0
2017-10-21T04:33:39.421Z,0
2017-10-21T04:34:39.412Z,0
2017-10-21T04:35:39.366Z,0
2017-10-21T04:36:39.038Z,0
2017-10-21T04:37:39.331Z,0
2017-10-21T04:38:39.306Z,0
2017-10-21T04:39:39.284Z,0
2017-10-21T04:40:39.269Z,0
2017-10-21T04:41:38.915Z,0
2017-10-21T04:42:39.228Z,0
2017-10-21T04:43:39.192Z,0
2017-10-21T04:44:39.178Z,0
2017-10-21T04:45:39.142Z,0
2017-10-21T04:46:38.802Z,0
2017-10-21T04:47:39.114Z,0
2017-10-21T04:48:39.076Z,0
2017-10-21T04:49:38.740Z,0
2017-10-21T04:50:39.030Z,0
2017-10-21T04:51:39.005Z,0
2017-10-21T04:52:38.991Z,0
2017-10-21T04:53:38.964Z,0
2017-10-21T04:54:38.945Z,0
2017-10-21T04:55:38.922Z,0
2017-10-21T04:56:38.573Z,0
2017-10-21T04:57:38.871Z,0
2017-10-21T04:58:38.850Z,0
2017-10-21T04:59:38.837Z,0
2017-10-21T05:00:38.803Z,0
2017-10-21T05:01:38.785Z,0
2017-10-21T05:02:38.781Z,0
2017-10-21T05:03:38.728Z,0
2017-10-21T05:04:38.716Z,0
2017-10-21T05:05:38.699Z,0
2017-10-21T05:06:38.672Z,0
2017-10-21T05:07:38.332Z,0
2017-10-21T05:08:38.626Z,0
2017-10-21T05:09:38.613Z,0
2017-10-21T05:10:38.572Z,0
2017-10-21T05:11:38.560Z,0
2017-10-21T05:12:38.534Z,0
2017-10-21T05:13:38.508Z,0
2017-10-21T05:14:38.841Z,0
2017-10-21T05:15:38.478Z,0
2017-10-21T05:16:38.464Z,0
2017-10-21T05:17:38.417Z,0
2017-10-21T05:18:38.401Z,0
2017-10-21T05:19:38.380Z,0
2017-10-21T05:20:38.374Z,0
2017-10-21T05:21:38.334Z,0
2017-10-21T05:22:38.314Z,0
2017-10-21T05:23:38.300Z,0
2017-10-21T05:24:38.254Z,0
2017-10-21T05:25:38.249Z,0
2017-10-21T05:26:38.212Z,0
2017-10-21T05:27:38.213Z,0
2017-10-21T05:28:38.164Z,0
2017-10-21T05:29:38.148Z,0
2017-10-21T05:30:38.133Z,0
2017-10-21T05:31:38.098Z,0
2017-10-21T05:32:37.765Z,4
2017-10-21T05:33:38.054Z,4
2017-10-21T05:34:38.029Z,0
2017-10-21T05:35:38.031Z,4
2017-10-21T05:36:37.982Z,4
2017-10-21T05:37:37.639Z,4
2017-10-21T05:38:37.935Z,4
2017-10-21T05:39:37.919Z,4
2017-10-21T05:40:37.909Z,4
2017-10-21T05:41:37.870Z,8
2017-10-21T05:42:37.849Z,8
2017-10-21T05:43:37.822Z,12
2017-10-21T05:44:37.805Z,12
2017-10-21T05:45:37.780Z,16
2017-10-21T05:46:37.760Z,24
2017-10-21T05:47:37.742Z,28
2017-10-21T05:48:37.711Z,32
2017-10-21T05:49:37.684Z,40
2017-10-21T05:50:37.673Z,44
2017-10-21T05:51:37.644Z,52
2017-10-21T05:52:37.623Z,64
2017-10-21T05:53:37.604Z,76
2017-10-21T05:54:37.261Z,84
2017-10-21T05:55:37.560Z,96
2017-10-21T05:56:37.534Z,112
2017-10-21T05:57:37.503Z,124
2017-10-21T05:58:37.475Z,144
2017-10-21T05:59:37.469Z,160
2017-10-21T06:00:37.453Z,176
2017-10-21T06:01:37.422Z,192
2017-10-21T06:02:37.074Z,204
2017-10-21T06:03:37.370Z,216
2017-10-21T06:04:37.360Z,240
2017-10-21T06:05:37.323Z,260
2017-10-21T06:06:37.306Z,284
2017-10-21T06:07:37.291Z,304
2017-10-21T06:08:37.283Z,320
2017-10-21T06:09:37.226Z,336
2017-10-21T06:10:37.216Z,348
2017-10-21T06:11:37.184Z,352
2017-10-21T06:12:37.170Z,372
2017-10-21T06:13:37.141Z,396
2017-10-21T06:14:37.120Z,436
2017-10-21T06:15:37.095Z,476
2017-10-21T06:16:37.068Z,516
2017-10-21T06:17:37.067Z,548
2017-10-21T06:18:37.021Z,592
2017-10-21T06:19:36.686Z,648
2017-10-21T06:20:36.975Z,744
2017-10-21T06:21:36.952Z,848
2017-10-21T06:22:36.615Z,896
2017-10-21T06:23:36.902Z,868
2017-10-21T06:24:36.899Z,856
2017-10-21T06:25:36.905Z,928
2017-10-21T06:26:36.850Z,1052
2017-10-21T06:27:36.811Z,1152
2017-10-21T06:28:36.799Z,1164
2017-10-21T06:29:36.443Z,1172
2017-10-21T06:30:36.766Z,1232
2017-10-21T06:31:37.083Z,1380
2017-10-21T06:32:36.706Z,1524
2017-10-21T06:33:36.687Z,1504
2017-10-21T06:34:36.655Z,1400
2017-10-21T06:35:36.646Z,1396
2017-10-21T06:36:36.615Z,1444
2017-10-21T06:37:36.585Z,1432
2017-10-21T06:38:36.568Z,1420
2017-10-21T06:39:36.548Z,1428
2017-10-21T06:40:36.529Z,1396
2017-10-21T06:41:36.496Z,1404
2017-10-21T06:42:36.471Z,1452
2017-10-21T06:43:36.132Z,1708
2017-10-21T06:44:36.429Z,1508
2017-10-21T06:45:36.405Z,1648
2017-10-21T06:46:36.379Z,2056
2017-10-21T06:47:36.056Z,2140
2017-10-21T06:48:36.342Z,2152
2017-10-21T06:49:36.335Z,2248
2017-10-21T06:50:36.294Z,2472
2017-10-21T06:51:36.283Z,2316
2017-10-21T06:52:36.255Z,2380
2017-10-21T06:53:36.233Z,2512
2017-10-21T06:54:35.887Z,3692
2017-10-21T06:55:36.185Z,2936
2017-10-21T06:56:36.150Z,3328
2017-10-21T06:57:36.140Z,2776
2017-10-21T06:58:36.119Z,2540
2017-10-21T06:59:35.923Z,2784
2017-10-21T07:00:36.089Z,2736
2017-10-21T07:01:35.723Z,2656
2017-10-21T07:02:35.716Z,3488
2017-10-21T07:03:35.681Z,4140
2017-10-21T07:04:35.998Z,3932
2017-10-21T07:05:35.959Z,4304
2017-10-21T07:06:35.669Z,4068
2017-10-21T07:07:35.599Z,3704
2017-10-21T07:08:35.890Z,3824
2017-10-21T07:09:35.541Z,6208
2017-10-21T07:10:35.526Z,5332
2017-10-21T07:11:35.830Z,6536
2017-10-21T07:12:35.801Z,5284
2017-10-21T07:13:35.781Z,5116
2017-10-21T07:14:35.781Z,2692
2017-10-21T07:15:35.734Z,2540
2017-10-21T07:16:35.738Z,2468
2017-10-21T07:17:35.370Z,2692
2017-10-21T07:18:35.351Z,2676
2017-10-21T07:19:35.681Z,2696
2017-10-21T07:20:35.018Z,2100
2017-10-21T07:21:35.614Z,1812
2017-10-21T07:22:35.622Z,1824
2017-10-21T07:23:35.552Z,2152
2017-10-21T07:24:35.538Z,2556
2017-10-21T07:25:35.510Z,3056
2017-10-21T07:26:35.494Z,3336
2017-10-21T07:27:35.473Z,2744
2017-10-21T07:28:35.454Z,2408
2017-10-21T07:29:35.416Z,2312
2017-10-21T07:30:35.427Z,1972
2017-10-21T07:31:35.380Z,1756
2017-10-21T07:32:35.355Z,1512
2017-10-21T07:33:35.342Z,1424
2017-10-21T07:34:35.346Z,1420
2017-10-21T07:35:35.279Z,1404
2017-10-21T07:36:35.280Z,1308
2017-10-21T07:37:35.237Z,1104
2017-10-21T07:38:35.230Z,1144
2017-10-21T07:39:35.232Z,1388
2017-10-21T07:40:35.178Z,1820
2017-10-21T07:41:34.843Z,2420
2017-10-21T07:42:35.131Z,2720
2017-10-21T07:43:35.116Z,2904
2017-10-21T07:44:35.110Z,3052
2017-10-21T07:45:35.063Z,2940
2017-10-21T07:46:35.053Z,2664
2017-10-21T07:47:35.025Z,2604
2017-10-21T07:48:35.001Z,2728
2017-10-21T07:49:34.654Z,3044
2017-10-21T07:50:34.652Z,3488
2017-10-21T07:51:34.925Z,3480
2017-10-21T07:52:34.918Z,3232
2017-10-21T07:53:34.918Z,3048
2017-10-21T07:54:34.871Z,2912
2017-10-21T07:55:34.197Z,2652
2017-10-21T07:56:34.817Z,2436
2017-10-21T07:57:34.794Z,2584
2017-10-21T07:58:34.770Z,2956
2017-10-21T07:59:34.760Z,3140
2017-10-21T08:00:34.740Z,3476
2017-10-21T08:01:34.720Z,3660
2017-10-21T08:02:34.699Z,3884
2017-10-21T08:03:34.662Z,3932
2017-10-21T08:04:34.634Z,3836
2017-10-21T08:05:34.616Z,3432
2017-10-21T08:06:34.603Z,3140
2017-10-21T08:07:34.574Z,3088
2017-10-21T08:08:34.548Z,2992
2017-10-21T08:09:34.530Z,2744
2017-10-21T08:10:34.512Z,2276
2017-10-21T08:11:34.484Z,1780
2017-10-21T08:12:34.146Z,1824
2017-10-21T08:13:34.469Z,1916
2017-10-21T08:14:34.416Z,2464
2017-10-21T08:15:34.396Z,3348
2017-10-21T08:16:34.379Z,3468
2017-10-21T08:17:34.358Z,3372
2017-10-21T08:18:34.325Z,4016
2017-10-21T08:19:34.304Z,4200
2017-10-21T08:20:34.280Z,3904
2017-10-21T08:21:34.263Z,3592
2017-10-21T08:22:34.235Z,2864
2017-10-21T08:23:34.208Z,2648
2017-10-21T08:24:34.220Z,2576
2017-10-21T08:25:34.169Z,2500
2017-10-21T08:26:34.164Z,2744
2017-10-21T08:27:34.138Z,3188
2017-10-21T08:28:34.105Z,3852
2017-10-21T08:29:34.080Z,4164
2017-10-21T08:30:34.063Z,4056
2017-10-21T08:31:34.058Z,3556
2017-10-21T08:32:34.030Z,3252
2017-10-21T08:33:33.985Z,2848
2017-10-21T08:34:33.976Z,2768
2017-10-21T08:35:33.943Z,2780
2017-10-21T08:36:33.604Z,2724
2017-10-21T08:37:33.584Z,2808
2017-10-21T08:38:33.884Z,2720
2017-10-21T08:39:33.861Z,2596
2017-10-21T08:40:33.836Z,2636
2017-10-21T08:41:33.813Z,2492
2017-10-21T08:42:33.793Z,2392
2017-10-21T08:43:33.774Z,2328
2017-10-21T08:44:33.747Z,2376
2017-10-21T08:45:33.413Z,2500
2017-10-21T08:46:33.703Z,2332
2017-10-21T08:47:33.676Z,2360
2017-10-21T08:48:33.354Z,3136
2017-10-21T08:49:33.648Z,3700
2017-10-21T08:50:33.619Z,3336
2017-10-21T08:51:33.587Z,2828
2017-10-21T08:52:33.569Z,2248
2017-10-21T08:53:33.226Z,1916
2017-10-21T08:54:33.519Z,1828
2017-10-21T08:55:33.500Z,1796
2017-10-21T08:56:33.173Z,2156
2017-10-21T08:57:33.462Z,2424
2017-10-21T08:58:33.121Z,2700
2017-10-21T08:59:33.404Z,3572
2017-10-21T09:00:33.384Z,4112
2017-10-21T09:01:33.370Z,4100
2017-10-21T09:02:33.338Z,3848
2017-10-21T09:03:33.315Z,3976
2017-10-21T09:04:32.969Z,4500
2017-10-21T09:05:33.275Z,4304
2017-10-21T09:06:33.243Z,4412
2017-10-21T09:07:33.215Z,4488
2017-10-21T09:08:32.878Z,4328
2017-10-21T09:09:33.181Z,4208
2017-10-21T09:10:33.154Z,4384
2017-10-21T09:11:33.138Z,4832
2017-10-21T09:12:33.108Z,4880
2017-10-21T09:13:33.081Z,4696
2017-10-21T09:14:33.079Z,4212
2017-10-21T09:15:33.052Z,3668
2017-10-21T09:16:32.706Z,3208
2017-10-21T09:17:33.006Z,3416
2017-10-21T09:18:32.974Z,3496
2017-10-21T09:19:32.955Z,3848
2017-10-21T09:20:32.923Z,4068
2017-10-21T09:21:32.901Z,4044
2017-10-21T09:22:32.889Z,4200
2017-10-21T09:23:32.849Z,3956
2017-10-21T09:24:32.827Z,4044
2017-10-21T09:25:32.813Z,4028
2017-10-21T09:26:32.794Z,3796
2017-10-21T09:27:32.445Z,4032
2017-10-21T09:28:32.739Z,3640
2017-10-21T09:29:32.722Z,3456
2017-10-21T09:30:32.693Z,3104
2017-10-21T09:31:32.672Z,2720
2017-10-21T09:32:32.675Z,2988
2017-10-21T09:33:32.644Z,3184
2017-10-21T09:34:32.607Z,3836
2017-10-21T09:35:32.589Z,3872
2017-10-21T09:36:32.233Z,3672
2017-10-21T09:37:32.536Z,3216
2017-10-21T09:38:32.511Z,2452
2017-10-21T09:39:32.498Z,2132
2017-10-21T09:40:32.476Z,2356
2017-10-21T09:41:32.446Z,2616
2017-10-21T09:42:32.422Z,3560
2017-10-21T09:43:32.397Z,4784
2017-10-21T09:44:32.392Z,5656
2017-10-21T09:45:32.352Z,6348
2017-10-21T09:46:32.428Z,6244
2017-10-21T09:47:32.309Z,4948
2017-10-21T09:48:32.289Z,3428
2017-10-21T09:49:32.260Z,3204
2017-10-21T09:50:32.245Z,3872
2017-10-21T09:51:32.223Z,4388
2017-10-21T09:52:32.194Z,5248
2017-10-21T09:53:32.170Z,5460
2017-10-21T09:54:31.842Z,4908
2017-10-21T09:55:31.816Z,4288
2017-10-21T09:56:32.102Z,3668
2017-10-21T09:57:32.098Z,3516
2017-10-21T09:58:32.057Z,3428
2017-10-21T09:59:32.040Z,3572
2017-10-21T10:00:32.020Z,3228
2017-10-21T10:01:32.014Z,3680
2017-10-21T10:02:32.010Z,3580
2017-10-21T10:03:31.946Z,3652
2017-10-21T10:04:31.930Z,3972
2017-10-21T10:05:31.904Z,4060
2017-10-21T10:06:31.881Z,4068
2017-10-21T10:07:31.537Z,3676
2017-10-21T10:08:31.845Z,3472
2017-10-21T10:09:31.812Z,3276
2017-10-21T10:10:31.797Z,3520
2017-10-21T10:11:31.447Z,3612
2017-10-21T10:12:31.758Z,4012
2017-10-21T10:13:31.729Z,4332
2017-10-21T10:14:31.694Z,4208
2017-10-21T10:15:31.715Z,4376
2017-10-21T10:16:31.671Z,4096
2017-10-21T10:17:31.318Z,3676
2017-10-21T10:18:31.287Z,3256
2017-10-21T10:19:31.588Z,3164
2017-10-21T10:20:31.558Z,3196
2017-10-21T10:21:31.541Z,3068
2017-10-21T10:22:31.510Z,2664
2017-10-21T10:23:31.499Z,2748
2017-10-21T10:24:31.487Z,3220
2017-10-21T10:25:31.462Z,3320
2017-10-21T10:26:31.147Z,2812
2017-10-21T10:27:31.414Z,2452
2017-10-21T10:28:31.393Z,2948
2017-10-21T10:29:31.717Z,3016
2017-10-21T10:30:31.338Z,3660
2017-10-21T10:31:31.324Z,4504
2017-10-21T10:32:31.292Z,3688
2017-10-21T10:33:31.285Z,2776
2017-10-21T10:34:31.255Z,2444
2017-10-21T10:35:30.915Z,2272
2017-10-21T10:36:31.225Z,2056
2017-10-21T10:37:31.188Z,2456
2017-10-21T10:38:30.849Z,2648
2017-10-21T10:39:31.147Z,2756
2017-10-21T10:40:31.215Z,2712
2017-10-21T10:41:31.093Z,2424
2017-10-21T10:42:30.753Z,2348
2017-10-21T10:43:31.405Z,2296
2017-10-21T10:44:30.405Z,2260
2017-10-21T10:45:31.027Z,2448
2017-10-21T10:46:30.662Z,3056
2017-10-21T10:47:30.329Z,3988
2017-10-21T10:48:30.926Z,3800
2017-10-21T10:49:30.908Z,4084
2017-10-21T10:50:30.892Z,4412
2017-10-21T10:51:30.865Z,5076
2017-10-21T10:52:30.881Z,5524
2017-10-21T10:53:30.830Z,5260
2017-10-21T10:54:30.800Z,6260
2017-10-21T10:55:30.458Z,8152
2017-10-21T10:56:30.473Z,6980
2017-10-21T10:57:30.741Z,5512
2017-10-21T10:58:30.392Z,5356
2017-10-21T10:59:30.710Z,5596
2017-10-21T11:00:30.370Z,5740
2017-10-21T11:01:30.644Z,5544
2017-10-21T11:02:30.624Z,6064
2017-10-21T11:03:30.611Z,6428
2017-10-21T11:04:30.268Z,7160
2017-10-21T11:05:30.585Z,7532
2017-10-21T11:06:30.537Z,7280
2017-10-21T11:07:30.522Z,7452
2017-10-21T11:08:30.490Z,5504
2017-10-21T11:09:30.475Z,4688
2017-10-21T11:10:30.442Z,4268
2017-10-21T11:11:30.426Z,5004
2017-10-21T11:12:30.397Z,6744
2017-10-21T11:13:30.080Z,6648
2017-10-21T11:14:30.373Z,7480
2017-10-21T11:15:30.016Z,6200
2017-10-21T11:16:30.313Z,5232
2017-10-21T11:17:29.995Z,4344
2017-10-21T11:18:29.950Z,4384
2017-10-21T11:19:30.246Z,5040
2017-10-21T11:20:30.214Z,4780
2017-10-21T11:21:30.199Z,4496
2017-10-21T11:22:30.184Z,5004
2017-10-21T11:23:30.156Z,4828
2017-10-21T11:24:30.139Z,5468
2017-10-21T11:25:30.114Z,5196
2017-10-21T11:26:30.087Z,5872
2017-10-21T11:27:30.065Z,6904
2017-10-21T11:28:30.054Z,7020
2017-10-21T11:29:30.020Z,6320
2017-10-21T11:30:29.691Z,5732
2017-10-21T11:31:30.343Z,5496
2017-10-21T11:32:29.963Z,5100
2017-10-21T11:33:29.939Z,4628
2017-10-21T11:34:29.925Z,3536
2017-10-21T11:35:29.888Z,3260
2017-10-21T11:36:29.871Z,3928
2017-10-21T11:37:29.614Z,4552
2017-10-21T11:38:29.831Z,4916
2017-10-21T11:39:29.863Z,4588
2017-10-21T11:40:29.782Z,5280
2017-10-21T11:41:29.763Z,8008
2017-10-21T11:42:29.752Z,12060
2017-10-21T11:43:29.729Z,12904
2017-10-21T11:44:29.700Z,12224
2017-10-21T11:45:29.675Z,9640
2017-10-21T11:46:29.334Z,7392
2017-10-21T11:47:29.649Z,5884
2017-10-21T11:48:29.615Z,4412
2017-10-21T11:49:29.580Z,3716
2017-10-21T11:50:29.563Z,3984
2017-10-21T11:51:29.560Z,4588
2017-10-21T11:52:29.532Z,5132
2017-10-21T11:53:29.489Z,4684
2017-10-21T11:54:29.481Z,4500
2017-10-21T11:55:29.457Z,4376
2017-10-21T11:56:29.116Z,5204
2017-10-21T11:57:29.113Z,9988
2017-10-21T11:58:29.077Z,7684
2017-10-21T11:59:29.373Z,7492
2017-10-21T12:00:29.349Z,7768
2017-10-21T12:01:29.328Z,6796
2017-10-21T12:02:29.304Z,7116
2017-10-21T12:03:29.294Z,6524
2017-10-21T12:04:28.953Z,7496
2017-10-21T12:05:29.236Z,9476
2017-10-21T12:06:29.217Z,9452
2017-10-21T12:07:29.550Z,10176
2017-10-21T12:08:29.198Z,9312
2017-10-21T12:09:28.836Z,8364
2017-10-21T12:10:29.135Z,8216
2017-10-21T12:11:29.103Z,8616
2017-10-21T12:12:29.084Z,9312
2017-10-21T12:13:29.058Z,9960
2017-10-21T12:14:29.052Z,10312
2017-10-21T12:15:29.034Z,9372
2017-10-21T12:16:29.011Z,8564
2017-10-21T12:17:29.007Z,9348
2017-10-21T12:18:28.962Z,10100
2017-10-21T12:19:28.945Z,9624
2017-10-21T12:20:28.917Z,8824
2017-10-21T12:21:28.897Z,8536
2017-10-21T12:22:28.555Z,9036
2017-10-21T12:23:28.876Z,8708
2017-10-21T12:24:28.827Z,7772
2017-10-21T12:25:28.813Z,7396
2017-10-21T12:26:28.802Z,7096
2017-10-21T12:27:28.776Z,7556
2017-10-21T12:28:28.749Z,9240
2017-10-21T12:29:28.729Z,10044
2017-10-21T12:30:28.729Z,9924
2017-10-21T12:31:28.690Z,9652
2017-10-21T12:32:28.665Z,9684
2017-10-21T12:33:28.642Z,9640
2017-10-21T12:34:28.614Z,9112
2017-10-21T12:35:28.606Z,9636
2017-10-21T12:36:28.587Z,8872
2017-10-21T12:37:28.238Z,8664
2017-10-21T12:38:28.206Z,9244
2017-10-21T12:39:28.512Z,9080
2017-10-21T12:40:28.486Z,9228
2017-10-21T12:41:28.468Z,9808
2017-10-21T12:42:28.445Z,9916
2017-10-21T12:43:27.789Z,10196
2017-10-21T12:44:28.421Z,9428
2017-10-21T12:45:28.382Z,8528
2017-10-21T12:46:28.373Z,8292
2017-10-21T12:47:28.334Z,8448
2017-10-21T12:48:28.674Z,8332
2017-10-21T12:49:28.301Z,8960
2017-10-21T12:50:28.299Z,9608
2017-10-21T12:51:28.260Z,10308
2017-10-21T12:52:27.946Z,9656
2017-10-21T12:53:28.236Z,8820
2017-10-21T12:54:28.191Z,8540
2017-10-21T12:55:28.170Z,9448
2017-10-21T12:56:28.156Z,9732
2017-10-21T12:57:27.802Z,9356
2017-10-21T12:58:28.109Z,9488
2017-10-21T12:59:28.076Z,9676
2017-10-21T13:00:28.067Z,10256
2017-10-21T13:01:27.732Z,9996
2017-10-21T13:02:28.035Z,10060
2017-10-21T13:03:28.023Z,11408
2017-10-21T13:04:27.981Z,10772
2017-10-21T13:05:27.974Z,10036
2017-10-21T13:06:27.963Z,8904
2017-10-21T13:07:27.937Z,11168
2017-10-21T13:08:27.265Z,9856
2017-10-21T13:09:27.888Z,9016
2017-10-21T13:10:27.857Z,8156
2017-10-21T13:11:27.846Z,7276
2017-10-21T13:12:27.822Z,5704
2017-10-21T13:13:27.465Z,5484
2017-10-21T13:14:27.468Z,6640
2017-10-21T13:15:27.757Z,7504
2017-10-21T13:16:27.758Z,6884
2017-10-21T13:17:27.706Z,7588
2017-10-21T13:18:27.388Z,7152
2017-10-21T13:19:27.662Z,6116
2017-10-21T13:20:27.343Z,3720
2017-10-21T13:21:27.630Z,3380
2017-10-21T13:22:27.603Z,4328
2017-10-21T13:23:27.600Z,5720
2017-10-21T13:24:27.245Z,9192
2017-10-21T13:25:27.225Z,8852
2017-10-21T13:26:27.212Z,8220
2017-10-21T13:27:27.508Z,6944
2017-10-21T13:28:27.487Z,4992
2017-10-21T13:29:27.145Z,4376
2017-10-21T13:30:27.183Z,3852
2017-10-21T13:31:27.091Z,4476
2017-10-21T13:32:27.086Z,5172
2017-10-21T13:33:27.389Z,6336
2017-10-21T13:34:27.354Z,5548
2017-10-21T13:35:27.357Z,5160
2017-10-21T13:36:27.316Z,4356
2017-10-21T13:37:27.317Z,3760
2017-10-21T13:38:27.297Z,4300
2017-10-21T13:39:27.275Z,4748
2017-10-21T13:40:26.923Z,5060
2017-10-21T13:41:27.222Z,5172
2017-10-21T13:42:27.186Z,4168
2017-10-21T13:43:27.181Z,4144
2017-10-21T13:44:27.169Z,3292
2017-10-21T13:45:27.163Z,3820
2017-10-21T13:46:27.117Z,4964
2017-10-21T13:47:27.096Z,6356
2017-10-21T13:48:27.070Z,4604
2017-10-21T13:49:27.050Z,3356
2017-10-21T13:50:26.698Z,2704
2017-10-21T13:51:26.691Z,3076
2017-10-21T13:52:26.348Z,3956
2017-10-21T13:53:26.989Z,4848
2017-10-21T13:54:26.962Z,5104